Weather at Fort Worth Alliance Airport

Public forecast

Using degrees Fahrenheit for public forecast. Weather courtesy of forecast.io.

Current aviation weather report (METAR) for Fort Worth Alliance Airport

Retrieved 2020/11/30 08:53 UTC (37 minutes ago):

KAFW 300853Z 34012KT 10SM CLR 02/M05 A3042 RMK AO2 SLP307 T00221050 51019

Aviation forecast (TAF) for Fort Worth Alliance Airport

Retrieved 2020/11/30 06:22 UTC (3 hours ago):

TAF KAFW 300520Z 3006/0106 34018KT P6SM SKC FM301200 33011KT P6SM SKC FM010100 21007KT P6SM SKC